Time;durP1;ratioP1;P1;durP2;ratioP2;P2;SDS_P1;SDS_P2;PMS_P1;PMS_P2;Temp;Humidity;BMP_temperature;BMP_pressure;BME280_temperature;BME280_humidity;BME280_pressure;Samples;Min_cycle;Max_cycle;Signal;HPM_P1;HPM_P2
2022/11/06 00:00:05;;;;;;;;;;;10.40;99.90;;;;;;5011236;28;19984;-77
2022/11/06 00:02:30;;;;;;;;;;;10.40;99.90;;;;;;4988625;28;19922;-76
2022/11/06 00:06:46;;;;;;;;;;;10.50;99.90;;;;;;4998587;28;20295;-77
2022/11/06 00:07:44;;;;;;;;;;;10.40;99.90;;;;;;5001345;28;19922;-78
2022/11/06 00:10:12;;;;;;;;;;;10.60;99.90;;;;;;5005614;28;19932;-80
2022/11/06 00:12:41;;;;;;;;;;;10.30;99.90;;;;;;5006566;28;19930;-75
2022/11/06 00:15:10;;;;;;;;;;;10.40;99.90;;;;;;5016895;28;19935;-73
2022/11/06 00:17:36;;;;;;;;;;;10.40;99.90;;;;;;5003233;28;19968;-73
2022/11/06 00:20:02;;;;;;;;;;;10.40;99.90;;;;;;4988428;28;19969;-75
2022/11/06 00:22:31;;;;;;;;;;;10.40;99.90;;;;;;4988902;28;19932;-74
2022/11/06 00:25:04;;;;;;;;;;;10.50;99.90;;;;;;4993339;28;20292;-75
2022/11/06 00:27:29;;;;;;;;;;;10.60;99.90;;;;;;4988894;28;19925;-75
2022/11/06 00:29:55;;;;;;;;;;;10.50;99.90;;;;;;4988259;28;19967;-76
2022/11/06 00:32:20;;;;;;;;;;;10.60;99.90;;;;;;4989762;28;19928;-76
2022/11/06 00:34:46;;;;;;;;;;;10.60;99.90;;;;;;4992378;28;19967;-76
2022/11/06 00:37:12;;;;;;;;;;;10.60;99.90;;;;;;4987884;28;19925;-72
2022/11/06 00:39:38;;;;;;;;;;;10.50;99.90;;;;;;4991461;28;19922;-75
2022/11/06 00:42:03;;;;;;;;;;;10.60;99.90;;;;;;4987888;28;19926;-74
2022/11/06 00:44:29;;;;;;;;;;;10.60;99.90;;;;;;4993252;28;19929;-74
2022/11/06 00:46:54;;;;;;;;;;;11.00;99.90;;;;;;4989849;28;19918;-74
2022/11/06 00:49:20;;;;;;;;;;;10.70;99.90;;;;;;4988868;28;19971;-74
2022/11/06 00:51:45;;;;;;;;;;;11.20;99.90;;;;;;4988419;28;19921;-73
2022/11/06 00:54:11;;;;;;;;;;;10.80;99.90;;;;;;4990153;28;19972;-76
2022/11/06 00:56:37;;;;;;;;;;;10.70;99.90;;;;;;4988811;28;19937;-74
2022/11/06 00:59:04;;;;;;;;;;;10.80;99.90;;;;;;4988334;28;19929;-75
2022/11/06 01:01:31;;;;;;;;;;;10.80;99.90;;;;;;4989166;28;19941;-75
2022/11/06 01:03:58;;;;;;;;;;;10.80;99.90;;;;;;4987651;28;19929;-74
2022/11/06 01:06:26;;;;;;;;;;;10.80;99.90;;;;;;4989289;28;19921;-74
2022/11/06 01:08:52;;;;;;;;;;;10.80;99.90;;;;;;4989699;28;20266;-75
2022/11/06 01:11:21;;;;;;;;;;;10.80;99.90;;;;;;4988456;28;20357;-74
2022/11/06 01:13:48;;;;;;;;;;;10.70;99.90;;;;;;4988565;28;20343;-73
2022/11/06 01:16:14;;;;;;;;;;;10.70;99.90;;;;;;4989563;28;19922;-73
2022/11/06 01:18:41;;;;;;;;;;;10.60;99.90;;;;;;4986947;28;20083;-74
2022/11/06 01:21:07;;;;;;;;;;;10.80;99.90;;;;;;4988510;28;20368;-74
2022/11/06 01:23:39;;;;;;;;;;;10.70;99.90;;;;;;4988881;28;19968;-74
2022/11/06 01:26:06;;;;;;;;;;;10.70;99.90;;;;;;4989837;28;19944;-74
2022/11/06 01:28:31;;;;;;;;;;;10.70;99.90;;;;;;4989179;28;20001;-74
2022/11/06 01:31:04;;;;;;;;;;;10.80;99.90;;;;;;4989476;28;20037;-75
2022/11/06 01:33:30;;;;;;;;;;;10.80;99.90;;;;;;4984728;28;20018;-75
2022/11/06 01:35:56;;;;;;;;;;;10.80;99.90;;;;;;4994970;28;19965;-75
2022/11/06 01:38:21;;;;;;;;;;;10.70;99.90;;;;;;4991770;28;19933;-75
2022/11/06 01:40:47;;;;;;;;;;;10.80;99.90;;;;;;4993413;28;19921;-76
2022/11/06 01:43:14;;;;;;;;;;;10.80;99.90;;;;;;4992582;28;19925;-76
2022/11/06 01:45:41;;;;;;;;;;;10.90;99.90;;;;;;4991187;28;19922;-76
2022/11/06 01:48:07;;;;;;;;;;;10.70;99.90;;;;;;4991596;28;19929;-76
2022/11/06 01:50:33;;;;;;;;;;;10.70;99.90;;;;;;4991736;28;19921;-76
2022/11/06 01:52:59;;;;;;;;;;;10.80;99.90;;;;;;4990763;28;19929;-76
2022/11/06 01:55:29;;;;;;;;;;;10.80;99.90;;;;;;4988353;28;19922;-76
2022/11/06 01:57:55;;;;;;;;;;;10.80;99.90;;;;;;4992164;28;20384;-77
2022/11/06 02:00:24;;;;;;;;;;;10.70;99.90;;;;;;4991160;28;19975;-76
2022/11/06 02:02:53;;;;;;;;;;;10.90;99.90;;;;;;4988379;28;20364;-76
2022/11/06 02:05:18;;;;;;;;;;;10.80;99.90;;;;;;4990631;28;19957;-76
2022/11/06 02:07:44;;;;;;;;;;;10.80;99.90;;;;;;4995664;28;20365;-76
2022/11/06 02:10:13;;;;;;;;;;;10.90;99.90;;;;;;4991985;28;19925;-76
2022/11/06 02:12:41;;;;;;;;;;;10.80;99.90;;;;;;4991882;28;20005;-76
2022/11/06 02:15:13;;;;;;;;;;;10.80;99.90;;;;;;4991315;28;19921;-76
2022/11/06 02:17:54;;;;;;;;;;;10.80;99.90;;;;;;4990379;28;19968;-76
2022/11/06 02:20:42;;;;;;;;;;;10.70;99.90;;;;;;4987698;28;19947;-73
2022/11/06 02:23:23;;;;;;;;;;;10.70;99.90;;;;;;4995783;28;20016;-75
2022/11/06 02:25:49;;;;;;;;;;;10.70;99.90;;;;;;4990458;28;19922;-75
2022/11/06 02:28:20;;;;;;;;;;;10.70;99.90;;;;;;4991246;28;19944;-75
2022/11/06 02:30:46;;;;;;;;;;;11.10;99.90;;;;;;4990977;28;19971;-76
2022/11/06 02:33:14;;;;;;;;;;;10.90;99.90;;;;;;4992630;28;20424;-76
2022/11/06 02:36:06;;;;;;;;;;;10.80;99.90;;;;;;4990606;28;19922;-76
2022/11/06 02:38:34;;;;;;;;;;;10.80;99.90;;;;;;4984865;28;20017;-76
2022/11/06 02:41:03;;;;;;;;;;;11.10;99.90;;;;;;4992930;28;19928;-76
2022/11/06 02:43:31;;;;;;;;;;;10.80;99.90;;;;;;4989250;28;19922;-75
2022/11/06 02:46:23;;;;;;;;;;;10.80;99.90;;;;;;4990849;28;19989;-76
2022/11/06 02:49:01;;;;;;;;;;;10.60;99.90;;;;;;4985941;28;19921;-75
2022/11/06 02:51:28;;;;;;;;;;;10.80;99.90;;;;;;4988611;28;19925;-75
2022/11/06 02:53:57;;;;;;;;;;;10.80;99.90;;;;;;4991830;28;19933;-76
2022/11/06 02:56:26;;;;;;;;;;;10.90;99.90;;;;;;4990294;28;19918;-76
2022/11/06 02:58:51;;;;;;;;;;;10.90;99.90;;;;;;4989161;28;19922;-76
2022/11/06 03:01:24;;;;;;;;;;;10.90;99.90;;;;;;4990978;28;19922;-76
2022/11/06 03:03:52;;;;;;;;;;;10.80;99.90;;;;;;4990818;28;19974;-76
2022/11/06 03:06:22;;;;;;;;;;;10.80;99.90;;;;;;4991235;28;20395;-75
2022/11/06 03:08:53;;;;;;;;;;;10.70;99.90;;;;;;4991408;28;20396;-76
2022/11/06 03:11:22;;;;;;;;;;;10.80;99.90;;;;;;4988628;28;19922;-76
2022/11/06 03:13:56;;;;;;;;;;;10.80;99.90;;;;;;4989924;28;20296;-75
2022/11/06 03:16:27;;;;;;;;;;;10.90;99.90;;;;;;4990929;28;19972;-76
2022/11/06 03:19:02;;;;;;;;;;;10.80;99.90;;;;;;4990799;28;19965;-76
2022/11/06 03:21:35;;;;;;;;;;;10.80;99.90;;;;;;4990548;28;19945;-75
2022/11/06 03:24:04;;;;;;;;;;;10.90;99.90;;;;;;4990472;28;19921;-76
2022/11/06 03:26:32;;;;;;;;;;;11.40;99.90;;;;;;4990251;28;20430;-76
2022/11/06 03:29:10;;;;;;;;;;;10.90;99.90;;;;;;4992398;28;19971;-76
2022/11/06 03:31:38;;;;;;;;;;;11.00;99.90;;;;;;4993251;28;20038;-76
2022/11/06 03:34:05;;;;;;;;;;;11.00;99.90;;;;;;4993202;28;19944;-75
2022/11/06 03:36:36;;;;;;;;;;;10.80;99.90;;;;;;4990589;28;20332;-75
2022/11/06 03:39:06;;;;;;;;;;;10.90;99.90;;;;;;4994222;28;20560;-75
2022/11/06 03:41:37;;;;;;;;;;;10.80;99.90;;;;;;4990417;28;19940;-75
2022/11/06 03:44:05;;;;;;;;;;;10.70;99.90;;;;;;4990802;28;20381;-76
2022/11/06 03:46:31;;;;;;;;;;;10.90;99.90;;;;;;4989645;28;20296;-75
2022/11/06 03:49:03;;;;;;;;;;;11.00;99.90;;;;;;4992052;28;20067;-76
2022/11/06 03:51:43;;;;;;;;;;;11.00;99.90;;;;;;4989843;28;20376;-76
2022/11/06 03:54:15;;;;;;;;;;;11.00;99.90;;;;;;4986382;28;20371;-76
2022/11/06 03:56:50;;;;;;;;;;;10.90;99.90;;;;;;4990222;28;19921;-76
2022/11/06 03:59:22;;;;;;;;;;;10.90;99.90;;;;;;4989958;28;20019;-76
2022/11/06 04:01:48;;;;;;;;;;;10.90;99.90;;;;;;4991602;28;19928;-75
2022/11/06 04:04:23;;;;;;;;;;;10.90;99.90;;;;;;4989075;28;19975;-75
2022/11/06 04:06:52;;;;;;;;;;;11.00;99.90;;;;;;4989909;28;19921;-75
2022/11/06 04:14:51;;;;;;;;;;;11.00;99.90;;;;;;4995718;28;19922;-75
2022/11/06 04:17:17;;;;;;;;;;;10.90;99.90;;;;;;5006171;28;20322;-76
2022/11/06 04:19:48;;;;;;;;;;;10.90;99.90;;;;;;5005944;28;19926;-74
2022/11/06 04:22:16;;;;;;;;;;;10.90;99.90;;;;;;4999775;28;19921;-76
2022/11/06 04:27:32;;;;;;;;;;;11.00;99.90;;;;;;4984526;28;19929;-75
2022/11/06 04:30:09;;;;;;;;;;;11.00;99.90;;;;;;4988992;28;19922;-76
2022/11/06 04:32:39;;;;;;;;;;;11.00;99.90;;;;;;4986782;28;19960;-75
2022/11/06 04:35:16;;;;;;;;;;;11.00;99.90;;;;;;4988177;28;20357;-76
2022/11/06 04:37:44;;;;;;;;;;;10.90;99.90;;;;;;4991751;28;20008;-75
2022/11/06 04:40:13;;;;;;;;;;;10.90;99.90;;;;;;4989866;28;19922;-75
2022/11/06 04:42:39;;;;;;;;;;;11.10;99.90;;;;;;4989091;28;19928;-75
2022/11/06 04:45:14;;;;;;;;;;;11.30;99.90;;;;;;4990076;28;19917;-75
2022/11/06 04:47:40;;;;;;;;;;;10.90;99.90;;;;;;4989483;28;19925;-75
2022/11/06 04:50:08;;;;;;;;;;;11.00;99.90;;;;;;4989107;28;19918;-75
2022/11/06 04:52:34;;;;;;;;;;;11.00;99.90;;;;;;4991432;28;19922;-75
2022/11/06 04:54:59;;;;;;;;;;;11.00;99.90;;;;;;4992276;28;20301;-76
2022/11/06 04:57:25;;;;;;;;;;;11.00;99.90;;;;;;4988590;28;19924;-75
2022/11/06 04:59:51;;;;;;;;;;;11.00;99.90;;;;;;4988445;28;19922;-76
2022/11/06 05:02:17;;;;;;;;;;;10.90;99.90;;;;;;4987724;28;19922;-76
2022/11/06 05:04:42;;;;;;;;;;;11.00;99.90;;;;;;4990041;28;19930;-75
2022/11/06 05:07:10;;;;;;;;;;;10.90;99.90;;;;;;4989631;28;19983;-74
2022/11/06 05:09:35;;;;;;;;;;;10.90;99.90;;;;;;4990107;28;19921;-75
2022/11/06 05:12:10;;;;;;;;;;;11.00;99.90;;;;;;4991499;28;19967;-75
2022/11/06 05:14:36;;;;;;;;;;;10.90;99.90;;;;;;4991383;28;19957;-75
2022/11/06 05:17:02;;;;;;;;;;;10.90;99.90;;;;;;4991588;28;19961;-75
2022/11/06 05:19:27;;;;;;;;;;;10.90;99.90;;;;;;4995466;28;19928;-75
2022/11/06 05:24:37;;;;;;;;;;;10.80;99.90;;;;;;5014198;28;20292;-75
2022/11/06 05:27:03;;;;;;;;;;;10.90;99.90;;;;;;4991395;28;19978;-74
2022/11/06 05:29:28;;;;;;;;;;;10.90;99.90;;;;;;4992759;28;20318;-74
2022/11/06 05:31:54;;;;;;;;;;;10.90;99.90;;;;;;4992025;28;20012;-74
2022/11/06 05:34:20;;;;;;;;;;;10.90;99.90;;;;;;4994757;28;19922;-74
2022/11/06 05:36:45;;;;;;;;;;;10.80;99.90;;;;;;4992692;28;19983;-75
2022/11/06 05:39:11;;;;;;;;;;;10.80;99.90;;;;;;4991824;28;19982;-74
2022/11/06 05:41:36;;;;;;;;;;;10.90;99.90;;;;;;4992241;28;19951;-74
2022/11/06 05:44:02;;;;;;;;;;;10.80;99.90;;;;;;4992371;28;19926;-75
2022/11/06 05:46:28;;;;;;;;;;;11.00;99.90;;;;;;4991834;28;19928;-75
2022/11/06 05:48:53;;;;;;;;;;;10.90;99.90;;;;;;4992674;28;19922;-75
2022/11/06 05:51:19;;;;;;;;;;;10.90;99.90;;;;;;4992397;28;20390;-75
2022/11/06 05:53:44;;;;;;;;;;;10.80;99.90;;;;;;4986598;28;20392;-75
2022/11/06 05:56:10;;;;;;;;;;;11.00;99.90;;;;;;4992491;28;19933;-75
2022/11/06 05:58:36;;;;;;;;;;;11.00;99.90;;;;;;4989759;28;20376;-75
2022/11/06 06:01:01;;;;;;;;;;;10.70;99.90;;;;;;4992303;28;19921;-75
2022/11/06 06:03:27;;;;;;;;;;;10.80;99.90;;;;;;4992227;28;20020;-75
2022/11/06 06:05:53;;;;;;;;;;;10.80;99.90;;;;;;4990399;28;19973;-75
2022/11/06 06:08:18;;;;;;;;;;;10.70;99.90;;;;;;4990972;28;19951;-75
2022/11/06 06:10:44;;;;;;;;;;;10.70;99.90;;;;;;4992099;28;20277;-75
2022/11/06 06:13:10;;;;;;;;;;;10.70;99.90;;;;;;4990191;28;20369;-75
2022/11/06 06:15:39;;;;;;;;;;;10.70;99.90;;;;;;4991744;28;19936;-74
2022/11/06 06:18:05;;;;;;;;;;;10.70;99.90;;;;;;4991952;28;19922;-75
2022/11/06 06:20:31;;;;;;;;;;;10.60;99.90;;;;;;4990253;28;19922;-75
2022/11/06 06:22:57;;;;;;;;;;;10.70;99.90;;;;;;4991813;28;19922;-74
2022/11/06 06:25:23;;;;;;;;;;;10.60;99.90;;;;;;4991686;28;20373;-74
2022/11/06 06:27:49;;;;;;;;;;;10.60;99.90;;;;;;4991227;28;19961;-74
2022/11/06 06:30:14;;;;;;;;;;;10.60;99.90;;;;;;4992039;28;19969;-74
2022/11/06 06:32:40;;;;;;;;;;;10.50;99.90;;;;;;4990388;28;19921;-74
2022/11/06 06:35:06;;;;;;;;;;;10.60;99.90;;;;;;4990877;28;19922;-74
2022/11/06 06:37:31;;;;;;;;;;;10.50;99.90;;;;;;4991219;28;19955;-74
2022/11/06 06:39:57;;;;;;;;;;;10.40;99.90;;;;;;4991696;28;19933;-74
2022/11/06 06:42:22;;;;;;;;;;;10.40;99.90;;;;;;4990384;28;19933;-74
2022/11/06 06:44:48;;;;;;;;;;;10.40;99.90;;;;;;4993697;28;20008;-74
2022/11/06 06:47:15;;;;;;;;;;;10.50;99.90;;;;;;4991846;28;20000;-74
2022/11/06 06:49:42;;;;;;;;;;;10.40;99.90;;;;;;4990629;28;19922;-73
2022/11/06 06:52:08;;;;;;;;;;;10.40;99.90;;;;;;4994810;28;20404;-74
2022/11/06 06:54:33;;;;;;;;;;;10.30;99.90;;;;;;4991132;28;19926;-74
2022/11/06 06:56:59;;;;;;;;;;;10.20;99.90;;;;;;4990425;28;19934;-74
2022/11/06 06:59:26;;;;;;;;;;;10.20;99.90;;;;;;4991157;28;19986;-74
2022/11/06 07:01:51;;;;;;;;;;;10.20;99.90;;;;;;4989095;28;19956;-74
2022/11/06 07:04:17;;;;;;;;;;;10.40;99.90;;;;;;4991152;28;20357;-75
2022/11/06 07:06:42;;;;;;;;;;;10.30;99.90;;;;;;4991237;28;20400;-74
2022/11/06 07:09:08;;;;;;;;;;;10.70;99.90;;;;;;4992939;28;20289;-73
2022/11/06 07:11:33;;;;;;;;;;;10.40;99.90;;;;;;4990113;28;20009;-74
2022/11/06 07:13:59;;;;;;;;;;;10.40;99.90;;;;;;4991259;28;20377;-73
2022/11/06 07:16:26;;;;;;;;;;;10.30;99.90;;;;;;4990626;28;20008;-74
2022/11/06 07:18:51;;;;;;;;;;;10.30;99.90;;;;;;4991223;28;19928;-74
2022/11/06 07:21:17;;;;;;;;;;;10.60;99.90;;;;;;4993759;28;19922;-73
2022/11/06 07:23:43;;;;;;;;;;;10.40;99.90;;;;;;4994051;28;20364;-74
2022/11/06 07:26:21;;;;;;;;;;;10.40;99.90;;;;;;4989757;28;19922;-74
2022/11/06 07:28:46;;;;;;;;;;;10.30;99.90;;;;;;4992168;28;19921;-73
2022/11/06 07:31:12;;;;;;;;;;;10.30;99.90;;;;;;4990060;28;20304;-74
2022/11/06 07:33:37;;;;;;;;;;;10.40;99.90;;;;;;4990295;28;19922;-74
2022/11/06 07:36:07;;;;;;;;;;;10.80;99.90;;;;;;4991133;28;19922;-74
2022/11/06 07:38:34;;;;;;;;;;;10.40;99.90;;;;;;4989698;28;19978;-74
2022/11/06 07:41:00;;;;;;;;;;;10.60;99.90;;;;;;4989946;28;19953;-74
2022/11/06 07:43:26;;;;;;;;;;;10.50;99.90;;;;;;4990602;28;19929;-74
2022/11/06 07:45:52;;;;;;;;;;;10.40;99.90;;;;;;4991193;28;19930;-75
2022/11/06 07:48:17;;;;;;;;;;;10.40;99.90;;;;;;4990507;28;19922;-75
2022/11/06 07:50:43;;;;;;;;;;;10.40;99.90;;;;;;4990628;28;20433;-74
2022/11/06 07:53:08;;;;;;;;;;;10.40;99.90;;;;;;4990705;28;19980;-73
2022/11/06 07:55:33;;;;;;;;;;;10.40;99.90;;;;;;4990320;28;19921;-74
2022/11/06 07:58:02;;;;;;;;;;;10.50;99.90;;;;;;4989828;28;20365;-75
2022/11/06 08:00:28;;;;;;;;;;;10.40;99.90;;;;;;4990231;28;20012;-75
2022/11/06 08:02:53;;;;;;;;;;;10.40;99.90;;;;;;4985741;28;19960;-75
2022/11/06 08:05:19;;;;;;;;;;;10.50;99.90;;;;;;4989845;28;19922;-75
2022/11/06 08:07:45;;;;;;;;;;;10.60;99.90;;;;;;4989088;28;19928;-75
2022/11/06 08:10:10;;;;;;;;;;;10.60;99.90;;;;;;4990780;28;19922;-73
2022/11/06 08:12:36;;;;;;;;;;;10.50;99.90;;;;;;4989843;28;19926;-75
2022/11/06 08:15:01;;;;;;;;;;;10.60;99.90;;;;;;4990860;28;20399;-75
2022/11/06 08:17:28;;;;;;;;;;;10.50;99.90;;;;;;4989834;28;19922;-75
2022/11/06 08:19:54;;;;;;;;;;;10.50;99.90;;;;;;4990877;28;19922;-73
2022/11/06 08:22:20;;;;;;;;;;;10.50;99.90;;;;;;5000832;28;19928;-73
2022/11/06 08:24:45;;;;;;;;;;;10.40;99.90;;;;;;5004181;28;19922;-73
2022/11/06 08:27:11;;;;;;;;;;;10.40;99.90;;;;;;5004468;28;19922;-72
2022/11/06 08:29:36;;;;;;;;;;;10.60;99.90;;;;;;5000357;28;19926;-77
2022/11/06 08:32:02;;;;;;;;;;;11.00;99.90;;;;;;4991563;28;19930;-74
2022/11/06 08:34:27;;;;;;;;;;;10.40;99.90;;;;;;4990595;28;20429;-77
2022/11/06 08:36:53;;;;;;;;;;;10.40;99.90;;;;;;4991175;28;19922;-79
2022/11/06 08:39:22;;;;;;;;;;;10.30;99.90;;;;;;4995558;28;19961;-78
2022/11/06 08:41:47;;;;;;;;;;;10.40;99.90;;;;;;4984526;28;19929;-74
2022/11/06 08:44:13;;;;;;;;;;;10.50;99.90;;;;;;4988972;28;19925;-75
2022/11/06 08:46:38;;;;;;;;;;;10.50;99.90;;;;;;4988733;28;19928;-73
2022/11/06 08:49:04;;;;;;;;;;;10.50;99.90;;;;;;4985455;28;19929;-73
2022/11/06 08:51:29;;;;;;;;;;;10.50;99.90;;;;;;4986361;28;19996;-70
2022/11/06 08:53:55;;;;;;;;;;;10.50;99.90;;;;;;4988360;28;20280;-73
2022/11/06 08:56:20;;;;;;;;;;;10.50;99.90;;;;;;4984334;28;19975;-69
2022/11/06 08:58:46;;;;;;;;;;;10.50;99.90;;;;;;4987509;28;19932;-76
2022/11/06 09:01:14;;;;;;;;;;;10.60;99.90;;;;;;4989916;28;19925;-78
2022/11/06 09:03:40;;;;;;;;;;;10.50;99.90;;;;;;4987657;28;20515;-72
2022/11/06 09:06:05;;;;;;;;;;;10.50;99.90;;;;;;4989394;28;19972;-72
2022/11/06 09:08:31;;;;;;;;;;;10.60;99.90;;;;;;4989222;28;19924;-74
2022/11/06 09:10:57;;;;;;;;;;;10.70;99.90;;;;;;4992377;28;20368;-74
2022/11/06 09:13:23;;;;;;;;;;;10.60;99.90;;;;;;4988855;28;20371;-72
2022/11/06 09:15:51;;;;;;;;;;;10.70;99.90;;;;;;4988576;28;20001;-75
2022/11/06 09:18:17;;;;;;;;;;;10.70;99.90;;;;;;4987184;28;20321;-72
2022/11/06 09:20:42;;;;;;;;;;;10.60;99.90;;;;;;4992071;28;20340;-75
2022/11/06 09:23:08;;;;;;;;;;;10.50;99.90;;;;;;4987977;28;20284;-75
2022/11/06 09:25:34;;;;;;;;;;;10.60;99.90;;;;;;4986626;28;20038;-73
2022/11/06 09:27:59;;;;;;;;;;;10.50;99.90;;;;;;4987492;28;19945;-74
2022/11/06 09:30:26;;;;;;;;;;;10.40;99.90;;;;;;4983188;28;19921;-77
2022/11/06 09:32:56;;;;;;;;;;;10.60;99.90;;;;;;4988721;28;19922;-71
2022/11/06 09:35:23;;;;;;;;;;;10.50;99.90;;;;;;4985567;28;19926;-71
2022/11/06 09:37:48;;;;;;;;;;;10.40;99.90;;;;;;4986920;28;20288;-74
2022/11/06 09:40:14;;;;;;;;;;;10.50;99.90;;;;;;4988997;28;19926;-75
2022/11/06 09:42:40;;;;;;;;;;;10.40;99.90;;;;;;4984732;28;19958;-72
2022/11/06 09:45:10;;;;;;;;;;;10.40;99.90;;;;;;4985504;28;19921;-71
2022/11/06 09:47:38;;;;;;;;;;;10.40;99.90;;;;;;4987552;28;20334;-71
2022/11/06 09:50:05;;;;;;;;;;;10.60;99.90;;;;;;4987866;28;19933;-71
2022/11/06 09:53:01;;;;;;;;;;;10.40;99.90;;;;;;4986577;28;20391;-69
2022/11/06 09:55:30;;;;;;;;;;;10.40;99.90;;;;;;4995206;28;19928;-70
2022/11/06 09:57:58;;;;;;;;;;;10.40;99.90;;;;;;5004710;28;20049;-73
2022/11/06 10:00:24;;;;;;;;;;;10.50;99.90;;;;;;4997571;28;19922;-73
2022/11/06 10:02:59;;;;;;;;;;;10.40;99.90;;;;;;4991525;28;20063;-73
2022/11/06 10:05:35;;;;;;;;;;;10.40;99.90;;;;;;4988385;28;20406;-75
2022/11/06 10:08:13;;;;;;;;;;;10.40;99.90;;;;;;4998657;28;20288;-72
2022/11/06 10:11:00;;;;;;;;;;;10.40;99.90;;;;;;4989570;28;19928;-72
2022/11/06 10:13:38;;;;;;;;;;;10.40;99.90;;;;;;4989825;28;19975;-72
2022/11/06 10:16:25;;;;;;;;;;;10.40;99.90;;;;;;4988865;28;20439;-74
2022/11/06 10:19:09;;;;;;;;;;;10.40;99.90;;;;;;4989382;28;19929;-74
2022/11/06 10:21:43;;;;;;;;;;;10.40;99.90;;;;;;4990608;28;19929;-72
2022/11/06 10:24:14;;;;;;;;;;;10.40;99.90;;;;;;5007697;28;19936;-71
2022/11/06 10:26:44;;;;;;;;;;;10.40;99.90;;;;;;4992049;28;20010;-73
2022/11/06 10:29:19;;;;;;;;;;;10.40;99.90;;;;;;4991808;28;20325;-75
2022/11/06 10:31:44;;;;;;;;;;;10.40;99.90;;;;;;4994428;28;19931;-73
2022/11/06 10:34:21;;;;;;;;;;;10.40;99.90;;;;;;4993902;28;19917;-71
2022/11/06 10:36:53;;;;;;;;;;;10.40;99.90;;;;;;4992126;28;19921;-71
2022/11/06 10:39:21;;;;;;;;;;;10.50;99.90;;;;;;4989278;28;19922;-72
2022/11/06 10:41:49;;;;;;;;;;;10.50;99.90;;;;;;4988949;28;19921;-74
2022/11/06 10:44:27;;;;;;;;;;;10.60;99.90;;;;;;4990917;28;20040;-75
2022/11/06 10:47:19;;;;;;;;;;;10.60;99.90;;;;;;4991419;28;20421;-72
2022/11/06 10:49:48;;;;;;;;;;;10.70;99.90;;;;;;5013266;28;19922;-72
2022/11/06 10:52:28;;;;;;;;;;;10.60;99.90;;;;;;4988070;28;19926;-74
2022/11/06 10:55:06;;;;;;;;;;;10.60;99.90;;;;;;4990306;28;19922;-72
2022/11/06 10:57:53;;;;;;;;;;;10.70;99.90;;;;;;4987064;28;19922;-71
2022/11/06 11:00:19;;;;;;;;;;;10.60;99.90;;;;;;4991208;28;19978;-71
2022/11/06 11:02:46;;;;;;;;;;;10.70;99.90;;;;;;4993506;28;20321;-71
2022/11/06 11:05:14;;;;;;;;;;;10.70;99.90;;;;;;4991071;28;20045;-75
2022/11/06 11:07:40;;;;;;;;;;;10.70;99.90;;;;;;4989571;28;19922;-73
2022/11/06 11:10:24;;;;;;;;;;;10.80;99.90;;;;;;4993643;28;20286;-70
2022/11/06 11:12:51;;;;;;;;;;;10.80;99.90;;;;;;5005756;28;20233;-70
2022/11/06 11:15:18;;;;;;;;;;;10.70;99.90;;;;;;5001080;28;19922;-73
2022/11/06 11:18:04;;;;;;;;;;;10.80;99.90;;;;;;5008024;28;19975;-72
2022/11/06 11:20:30;;;;;;;;;;;11.40;99.90;;;;;;5004503;28;19929;-72
2022/11/06 11:23:11;;;;;;;;;;;10.90;99.90;;;;;;5022900;28;19920;-70
2022/11/06 11:25:38;;;;;;;;;;;10.90;99.90;;;;;;5004356;28;19976;-78
2022/11/06 11:28:04;;;;;;;;;;;11.00;99.90;;;;;;5004986;28;19977;-72
2022/11/06 11:30:29;;;;;;;;;;;11.10;99.90;;;;;;5005435;28;19936;-73
2022/11/06 11:32:56;;;;;;;;;;;11.20;99.90;;;;;;5021068;28;19924;-73
2022/11/06 11:35:25;;;;;;;;;;;11.20;99.90;;;;;;5005443;28;19921;-73
2022/11/06 11:37:51;;;;;;;;;;;11.30;99.90;;;;;;4998258;28;19969;-73
2022/11/06 11:40:25;;;;;;;;;;;11.30;99.90;;;;;;5001925;28;19957;-72
2022/11/06 11:42:51;;;;;;;;;;;11.30;99.90;;;;;;5018049;28;19984;-73
2022/11/06 11:45:18;;;;;;;;;;;11.30;99.90;;;;;;5002500;28;19968;-72
2022/11/06 11:47:48;;;;;;;;;;;11.30;99.90;;;;;;5002940;28;19932;-71
2022/11/06 11:50:18;;;;;;;;;;;11.20;99.90;;;;;;5003018;28;20419;-72
2022/11/06 11:52:44;;;;;;;;;;;11.30;99.90;;;;;;5032776;28;19925;-72
2022/11/06 11:55:14;;;;;;;;;;;11.40;99.90;;;;;;5006117;28;19936;-72
2022/11/06 11:57:42;;;;;;;;;;;11.50;99.90;;;;;;5000180;28;19918;-77
2022/11/06 12:00:18;;;;;;;;;;;11.50;99.90;;;;;;5001098;28;19948;-71
2022/11/06 12:03:07;;;;;;;;;;;11.50;99.90;;;;;;5008118;28;19971;-70
2022/11/06 12:05:37;;;;;;;;;;;11.60;99.90;;;;;;4994696;28;19999;-72
2022/11/06 12:08:03;;;;;;;;;;;11.60;99.90;;;;;;4996489;28;19925;-73
2022/11/06 12:10:31;;;;;;;;;;;11.60;99.90;;;;;;5000553;28;19921;-75
2022/11/06 12:12:59;;;;;;;;;;;11.60;99.90;;;;;;4988796;28;19922;-76
2022/11/06 12:15:32;;;;;;;;;;;11.70;99.90;;;;;;4988586;28;20429;-75
2022/11/06 12:18:15;;;;;;;;;;;11.80;99.90;;;;;;4989689;28;19934;-71
2022/11/06 12:20:44;;;;;;;;;;;11.70;99.90;;;;;;4984176;28;19967;-73
2022/11/06 12:23:16;;;;;;;;;;;11.70;99.90;;;;;;4990697;28;20008;-78
2022/11/06 12:25:43;;;;;;;;;;;11.70;99.90;;;;;;4985893;28;19944;-73
2022/11/06 12:28:13;;;;;;;;;;;11.90;99.90;;;;;;4990412;28;19922;-76
2022/11/06 12:30:41;;;;;;;;;;;11.80;99.90;;;;;;5012565;28;19928;-71
2022/11/06 12:33:20;;;;;;;;;;;11.90;99.90;;;;;;4990499;28;19983;-72
2022/11/06 12:35:57;;;;;;;;;;;11.80;99.90;;;;;;4986462;28;19922;-70
2022/11/06 12:38:30;;;;;;;;;;;11.80;99.90;;;;;;4985805;28;20165;-73
2022/11/06 12:40:59;;;;;;;;;;;11.80;99.90;;;;;;4986811;28;19925;-71
2022/11/06 12:43:35;;;;;;;;;;;11.70;99.90;;;;;;4987169;28;19932;-72
2022/11/06 12:46:21;;;;;;;;;;;11.70;99.90;;;;;;4987700;28;19998;-75
2022/11/06 12:49:05;;;;;;;;;;;11.70;99.90;;;;;;4977186;28;19921;-74
2022/11/06 12:51:40;;;;;;;;;;;11.60;99.90;;;;;;4986966;28;19929;-73
2022/11/06 12:54:25;;;;;;;;;;;11.60;99.90;;;;;;4983180;28;19929;-73
2022/11/06 12:56:58;;;;;;;;;;;11.50;99.90;;;;;;4986876;28;19944;-72
2022/11/06 12:59:36;;;;;;;;;;;11.70;99.90;;;;;;4986425;28;20296;-74
2022/11/06 13:02:10;;;;;;;;;;;11.50;99.90;;;;;;4988375;28;19922;-72
2022/11/06 13:05:05;;;;;;;;;;;11.50;99.90;;;;;;4984242;28;20689;-73
2022/11/06 13:07:41;;;;;;;;;;;11.50;99.90;;;;;;5005610;28;19928;-69
2022/11/06 13:10:10;;;;;;;;;;;11.40;99.90;;;;;;4985177;28;20341;-69
2022/11/06 13:12:46;;;;;;;;;;;11.40;99.90;;;;;;4987509;28;19928;-69
2022/11/06 13:15:23;;;;;;;;;;;11.40;99.90;;;;;;4986680;28;20291;-69
2022/11/06 13:17:54;;;;;;;;;;;11.40;99.90;;;;;;4986946;28;19926;-68
2022/11/06 13:20:19;;;;;;;;;;;11.30;99.90;;;;;;4986226;28;19921;-69
2022/11/06 13:22:50;;;;;;;;;;;11.50;99.90;;;;;;4988698;28;19929;-69
2022/11/06 13:25:33;;;;;;;;;;;11.70;99.90;;;;;;5001726;28;19961;-71
2022/11/06 13:28:01;;;;;;;;;;;11.40;99.90;;;;;;4995938;28;19937;-71
2022/11/06 13:30:28;;;;;;;;;;;11.40;99.90;;;;;;4999901;28;20020;-73
2022/11/06 13:33:08;;;;;;;;;;;11.20;99.90;;;;;;5013148;28;20415;-71
2022/11/06 13:35:36;;;;;;;;;;;11.20;99.90;;;;;;5005500;28;20020;-71
2022/11/06 13:38:05;;;;;;;;;;;11.10;99.90;;;;;;5006815;28;19933;-71
2022/11/06 13:40:34;;;;;;;;;;;11.00;99.90;;;;;;4998458;28;19929;-69
2022/11/06 13:43:11;;;;;;;;;;;11.10;99.90;;;;;;4995045;28;20041;-70
2022/11/06 13:45:43;;;;;;;;;;;11.00;99.90;;;;;;4997952;28;19925;-71
2022/11/06 13:48:27;;;;;;;;;;;11.00;99.90;;;;;;5009000;28;20004;-70
2022/11/06 13:51:02;;;;;;;;;;;11.10;99.90;;;;;;5007429;28;19943;-72
2022/11/06 13:53:36;;;;;;;;;;;11.10;99.90;;;;;;5011934;28;19926;-70
2022/11/06 13:56:08;;;;;;;;;;;11.10;99.90;;;;;;4994814;28;19932;-71
2022/11/06 13:58:36;;;;;;;;;;;10.90;99.90;;;;;;4991500;28;19926;-69
2022/11/06 14:01:14;;;;;;;;;;;10.80;99.90;;;;;;4994669;28;19922;-69
2022/11/06 14:03:52;;;;;;;;;;;10.80;99.90;;;;;;4992978;28;19941;-70
2022/11/06 14:06:22;;;;;;;;;;;10.90;99.90;;;;;;4986796;28;19976;-70
2022/11/06 14:08:47;;;;;;;;;;;11.00;99.90;;;;;;4991058;28;19930;-70
2022/11/06 14:11:15;;;;;;;;;;;10.90;99.90;;;;;;4989236;28;19933;-69
2022/11/06 14:13:53;;;;;;;;;;;10.80;99.90;;;;;;4990927;28;19922;-69
2022/11/06 14:16:21;;;;;;;;;;;11.00;99.90;;;;;;4990757;28;19965;-69
2022/11/06 14:18:53;;;;;;;;;;;11.00;99.90;;;;;;4990651;28;19932;-69
2022/11/06 14:21:45;;;;;;;;;;;11.00;99.90;;;;;;4990826;28;20023;-70
2022/11/06 14:24:16;;;;;;;;;;;11.00;99.90;;;;;;4992262;28;19991;-69
2022/11/06 14:26:43;;;;;;;;;;;11.00;99.90;;;;;;4992045;28;19929;-70
2022/11/06 14:29:26;;;;;;;;;;;10.90;99.90;;;;;;4990855;28;19922;-69
2022/11/06 14:32:05;;;;;;;;;;;11.00;99.90;;;;;;4987955;28;20431;-71
2022/11/06 14:34:32;;;;;;;;;;;11.10;99.90;;;;;;4988643;28;19944;-71
2022/11/06 14:36:57;;;;;;;;;;;11.10;99.90;;;;;;4991635;28;19969;-71
2022/11/06 14:39:42;;;;;;;;;;;11.00;99.90;;;;;;4986402;28;19929;-72